Terminal Aerodrome Forecast
Issued by NWS

Home | Current Version | Previous Version | Text Only | Print | Product List | Glossary On
Versions: 1 2 3 4 5 6 7 8 9 10 11 12 13 14 15 16 17 18 19 20
000
FTUS44 KTSA 200600 AAA
TAFBVO
TAF AMD
KBVO 200605Z 2006/2106 00000KT 2SM BR SCT004
      TEMPO 2007/2011 1SM BR OVC004
     FM201100 VRB03KT 1SM BR OVC004
     FM201400 19004KT 3SM BR SCT007
     FM201600 19006KT P6SM SCT050
     FM210100 00000KT P6SM SCT250=

USA.gov is the U.S. government's official web portal to all federal, state and local government web resources and services.